Time;durP1;ratioP1;P1;durP2;ratioP2;P2;SDS_P1;SDS_P2;PMS_P1;PMS_P2;Temp;Humidity;BMP_temperature;BMP_pressure;BME280_temperature;BME280_humidity;BME280_pressure;Samples;Min_cycle;Max_cycle;Signal;HPM_P1;HPM_P2
2022/08/23 00:01:06;;;;;;;9.70;6.80;;;18.50;99.90;;;;;;5010819;28;20946;-71
2022/08/23 00:03:32;;;;;;;7.40;5.40;;;18.50;99.90;;;;;;5003277;28;20808;-70
2022/08/23 00:05:58;;;;;;;4.80;4.50;;;18.40;99.90;;;;;;5011919;28;20927;-70
2022/08/23 00:08:24;;;;;;;6.50;4.90;;;18.30;99.90;;;;;;5007076;28;20560;-70
2022/08/23 00:10:49;;;;;;;4.90;4.50;;;18.30;99.90;;;;;;5007920;28;20656;-69
2022/08/23 00:13:16;;;;;;;5.57;5.10;;;18.20;99.90;;;;;;5009526;28;20182;-70
2022/08/23 00:15:41;;;;;;;5.73;5.00;;;18.10;99.90;;;;;;5008355;28;20186;-70
2022/08/23 00:18:07;;;;;;;4.77;4.37;;;18.20;99.90;;;;;;4999252;28;20435;-73
2022/08/23 00:20:33;;;;;;;5.17;4.40;;;18.20;99.90;;;;;;5002981;28;20234;-70
2022/08/23 00:22:58;;;;;;;5.30;4.50;;;18.10;99.90;;;;;;4998841;28;20264;-76
2022/08/23 00:25:24;;;;;;;5.40;4.90;;;18.00;99.90;;;;;;5016410;28;20183;-70
2022/08/23 00:27:49;;;;;;;4.20;3.90;;;18.00;99.90;;;;;;5004862;28;20194;-74
2022/08/23 00:30:16;;;;;;;4.73;4.33;;;18.00;99.90;;;;;;5008263;28;20266;-74
2022/08/23 00:32:42;;;;;;;6.00;5.50;;;18.00;99.90;;;;;;5019959;28;20210;-69
2022/08/23 00:35:10;;;;;;;5.40;4.93;;;18.00;99.90;;;;;;5007015;28;20465;-69
2022/08/23 00:37:36;;;;;;;6.80;4.50;;;18.10;99.90;;;;;;5009509;28;20445;-69
2022/08/23 00:40:03;;;;;;;4.57;4.20;;;18.10;99.90;;;;;;4999374;28;20517;-69
2022/08/23 00:48:50;;;;;;;4.97;4.57;;;17.90;99.90;;;;;;5019237;28;20445;-71
2022/08/23 00:51:21;;;;;;;4.77;4.27;;;17.90;99.90;;;;;;5020815;28;20460;-69
2022/08/23 00:53:52;;;;;;;4.80;4.30;;;17.80;99.90;;;;;;5019415;28;20467;-70
2022/08/23 00:56:20;;;;;;;5.17;4.87;;;17.70;99.90;;;;;;5004772;28;20435;-70
2022/08/23 00:58:46;;;;;;;5.47;4.97;;;17.70;99.90;;;;;;5010640;28;20456;-70
2022/08/23 01:01:13;;;;;;;4.90;4.50;;;17.70;99.90;;;;;;5017735;28;20973;-70
2022/08/23 01:03:41;;;;;;;6.33;4.57;;;17.70;99.90;;;;;;5010544;28;20433;-70
2022/08/23 01:06:15;;;;;;;8.00;6.60;;;17.70;99.90;;;;;;5009135;28;20435;-72
2022/08/23 01:08:46;;;;;;;6.40;4.87;;;17.70;99.90;;;;;;5006154;28;20437;-73
2022/08/23 01:11:24;;;;;;;5.30;4.80;;;17.60;99.90;;;;;;5012360;28;20905;-72
2022/08/23 01:13:57;;;;;;;6.03;5.40;;;17.60;99.90;;;;;;5007080;28;20463;-72
2022/08/23 01:16:47;;;;;;;5.23;4.77;;;17.50;99.90;;;;;;5007935;28;20442;-72
2022/08/23 01:19:21;;;;;;;5.33;4.93;;;17.50;99.90;;;;;;5004512;28;20980;-70
2022/08/23 01:22:12;;;;;;;5.30;4.80;;;17.40;99.90;;;;;;5001527;28;20453;-73
2022/08/23 01:24:39;;;;;;;4.93;4.53;;;17.30;99.90;;;;;;5000385;28;20465;-70
2022/08/23 01:27:05;;;;;;;4.80;4.50;;;17.30;99.90;;;;;;5001358;28;20780;-73
2022/08/23 01:29:31;;;;;;;7.23;5.00;;;17.30;99.90;;;;;;5008687;28;20428;-73
2022/08/23 01:31:57;;;;;;;5.07;4.63;;;17.30;99.90;;;;;;5011682;28;20501;-72
2022/08/23 01:34:27;;;;;;;7.00;5.73;;;17.30;99.90;;;;;;5003881;28;20454;-73
2022/08/23 01:36:53;;;;;;;4.70;4.40;;;17.20;99.90;;;;;;5004184;28;20175;-72
2022/08/23 01:39:19;;;;;;;4.57;4.27;;;17.20;99.90;;;;;;5009446;28;20434;-72
2022/08/23 01:41:44;;;;;;;5.07;4.67;;;17.10;99.90;;;;;;5004980;28;20447;-72
2022/08/23 01:44:10;;;;;;;5.00;4.63;;;17.20;99.90;;;;;;5002721;28;20172;-72
2022/08/23 01:46:36;;;;;;;4.53;4.20;;;17.30;99.90;;;;;;4997005;28;20187;-73
2022/08/23 01:49:04;;;;;;;4.87;4.50;;;17.20;99.90;;;;;;5000770;28;20180;-72
2022/08/23 01:51:30;;;;;;;4.80;4.40;;;17.20;99.90;;;;;;5007275;28;20664;-73
2022/08/23 01:53:56;;;;;;;4.77;4.37;;;17.20;99.90;;;;;;5001921;28;20895;-72
2022/08/23 01:56:23;;;;;;;4.97;4.67;;;17.30;99.90;;;;;;5007562;28;20465;-72
2022/08/23 01:58:49;;;;;;;4.60;4.20;;;17.40;99.90;;;;;;5005230;28;20551;-73
2022/08/23 02:01:16;;;;;;;5.37;4.87;;;17.20;99.90;;;;;;5007031;28;20476;-73
2022/08/23 02:03:41;;;;;;;5.13;4.63;;;17.10;99.90;;;;;;5015637;28;20869;-73
2022/08/23 02:06:07;;;;;;;5.43;5.03;;;17.10;99.90;;;;;;5010495;28;20437;-73
2022/08/23 02:11:21;;;;;;;4.90;4.50;;;16.90;99.90;;;;;;5010068;28;20205;-73
2022/08/23 02:13:47;;;;;;;5.17;4.63;;;16.80;99.90;;;;;;5012534;28;20461;-73
2022/08/23 02:16:25;;;;;;;5.37;4.60;;;16.80;99.90;;;;;;5013591;28;20450;-72
2022/08/23 02:18:51;;;;;;;5.43;4.93;;;16.90;99.90;;;;;;5013578;28;20433;-73
2022/08/23 02:21:18;;;;;;;4.90;4.60;;;17.00;99.90;;;;;;5009311;28;20458;-71
2022/08/23 02:23:44;;;;;;;4.87;4.53;;;17.30;99.90;;;;;;5010833;28;20448;-72
2022/08/23 02:26:09;;;;;;;5.77;5.23;;;16.90;99.90;;;;;;5003624;28;20445;-73
2022/08/23 02:28:35;;;;;;;5.00;4.50;;;17.00;99.90;;;;;;5009194;28;20441;-73
2022/08/23 02:31:01;;;;;;;5.33;4.93;;;16.90;99.90;;;;;;5010330;28;20195;-73
2022/08/23 02:33:27;;;;;;;5.10;4.73;;;16.80;99.90;;;;;;5012408;28;20529;-72
2022/08/23 02:35:52;;;;;;;5.40;4.90;;;16.80;99.90;;;;;;5000394;28;20204;-72
2022/08/23 02:38:18;;;;;;;5.33;4.80;;;16.70;99.90;;;;;;4999674;28;20461;-72
2022/08/23 02:40:44;;;;;;;7.83;4.80;;;16.70;99.90;;;;;;5008853;28;20194;-72
2022/08/23 02:43:10;;;;;;;5.43;4.93;;;16.70;99.90;;;;;;5009127;28;20270;-72
2022/08/23 02:45:36;;;;;;;5.43;4.40;;;16.70;99.90;;;;;;5005899;28;20175;-72
2022/08/23 02:48:03;;;;;;;4.60;4.30;;;16.70;99.90;;;;;;5004431;28;20525;-73
2022/08/23 02:50:30;;;;;;;5.97;5.10;;;16.70;99.90;;;;;;5012391;28;20568;-73
2022/08/23 02:52:57;;;;;;;5.17;4.67;;;16.80;99.90;;;;;;5010574;28;20520;-73
2022/08/23 02:55:22;;;;;;;6.13;4.60;;;16.80;99.90;;;;;;5013366;28;20848;-72
2022/08/23 02:57:48;;;;;;;5.53;5.03;;;16.70;99.90;;;;;;5003549;28;20533;-73
2022/08/23 03:00:15;;;;;;;6.03;5.60;;;16.70;99.90;;;;;;5005653;28;20228;-73
2022/08/23 03:02:41;;;;;;;5.57;4.63;;;16.60;99.90;;;;;;5006337;28;20182;-71
2022/08/23 03:05:09;;;;;;;4.70;4.30;;;16.60;99.90;;;;;;5015461;28;20793;-73
2022/08/23 03:07:34;;;;;;;6.80;4.70;;;16.60;99.90;;;;;;5014776;28;20445;-69
2022/08/23 03:10:00;;;;;;;5.10;4.70;;;16.50;99.90;;;;;;5033667;28;20453;-72
2022/08/23 03:12:27;;;;;;;4.53;4.23;;;16.50;99.90;;;;;;5018937;28;20671;-72
2022/08/23 03:14:52;;;;;;;4.90;4.50;;;16.70;99.90;;;;;;5008017;28;20221;-73
2022/08/23 03:17:18;;;;;;;4.80;4.50;;;16.70;99.90;;;;;;5011614;28;20978;-73
2022/08/23 03:19:44;;;;;;;5.87;5.30;;;16.50;99.90;;;;;;5001783;28;20645;-72
2022/08/23 03:22:10;;;;;;;5.27;4.97;;;16.60;99.90;;;;;;5008555;28;20483;-72
2022/08/23 03:24:36;;;;;;;5.33;4.93;;;16.50;99.90;;;;;;5001727;28;20652;-72
2022/08/23 03:27:04;;;;;;;6.20;4.87;;;16.40;99.90;;;;;;5005931;28;20182;-73
2022/08/23 03:29:30;;;;;;;5.37;4.87;;;16.50;99.90;;;;;;5009658;28;20422;-72
2022/08/23 03:31:56;;;;;;;7.57;5.27;;;16.50;99.90;;;;;;5007821;28;20458;-72
2022/08/23 03:34:22;;;;;;;5.83;5.27;;;16.30;99.90;;;;;;5008820;28;20977;-72
2022/08/23 03:36:47;;;;;;;5.27;4.87;;;16.40;99.90;;;;;;5003057;28;20225;-73
2022/08/23 03:39:13;;;;;;;5.70;5.10;;;16.50;99.90;;;;;;5000521;28;20225;-73
2022/08/23 03:41:38;;;;;;;5.20;4.67;;;16.40;99.90;;;;;;5006732;28;20283;-72
2022/08/23 03:44:04;;;;;;;5.77;5.17;;;16.50;99.90;;;;;;5008408;28;20196;-73
2022/08/23 03:46:30;;;;;;;5.40;4.90;;;16.40;99.90;;;;;;5004378;28;20198;-73
2022/08/23 03:48:59;;;;;;;5.50;5.10;;;16.40;99.90;;;;;;4998886;28;20199;-73
2022/08/23 03:51:26;;;;;;;8.87;5.13;;;16.30;99.90;;;;;;5000484;28;20967;-72
2022/08/23 03:53:52;;;;;;;4.57;4.20;;;16.30;99.90;;;;;;4997154;28;20810;-73
2022/08/23 03:56:25;;;;;;;5.23;4.83;;;16.40;99.90;;;;;;5002224;28;20429;-72
2022/08/23 03:58:52;;;;;;;6.57;5.97;;;16.20;99.90;;;;;;5004229;28;20430;-72
2022/08/23 04:01:18;;;;;;;6.20;5.70;;;16.20;99.90;;;;;;5004494;28;20528;-73
2022/08/23 04:03:44;;;;;;;6.13;5.63;;;16.20;99.90;;;;;;5002147;28;20442;-72
2022/08/23 04:06:10;;;;;;;6.20;5.43;;;16.20;99.90;;;;;;5015006;28;20437;-72
2022/08/23 04:08:36;;;;;;;5.80;5.13;;;16.20;99.90;;;;;;5011846;28;20205;-73
2022/08/23 04:11:03;;;;;;;5.13;4.63;;;16.10;99.90;;;;;;5002342;28;20469;-73
2022/08/23 04:13:29;;;;;;;5.37;4.97;;;16.20;99.90;;;;;;5001398;28;20442;-71
2022/08/23 04:15:55;;;;;;;8.03;4.97;;;16.20;99.90;;;;;;5006520;28;20951;-73
2022/08/23 04:18:21;;;;;;;5.47;5.07;;;16.10;99.90;;;;;;5004955;28;20183;-73
2022/08/23 04:20:48;;;;;;;5.83;5.33;;;16.10;99.90;;;;;;5005585;28;20477;-73
2022/08/23 04:23:14;;;;;;;5.00;4.70;;;16.20;99.90;;;;;;5004985;28;20445;-73
2022/08/23 04:25:42;;;;;;;5.10;4.60;;;16.00;99.90;;;;;;5006955;28;20437;-73
2022/08/23 04:28:07;;;;;;;5.40;4.90;;;15.90;99.90;;;;;;4999357;28;20186;-73
2022/08/23 04:30:33;;;;;;;4.73;4.43;;;15.90;99.90;;;;;;5005501;28;20461;-73
2022/08/23 04:32:59;;;;;;;5.77;4.83;;;15.80;99.90;;;;;;5000860;28;20241;-70
2022/08/23 04:35:25;;;;;;;5.77;5.27;;;15.80;99.90;;;;;;5003217;28;20218;-71
2022/08/23 04:37:51;;;;;;;4.60;4.30;;;15.80;99.90;;;;;;5000910;28;20452;-72
2022/08/23 04:43:01;;;;;;;6.33;5.70;;;15.80;99.90;;;;;;5006179;28;20769;-73
2022/08/23 04:45:28;;;;;;;5.33;4.93;;;15.80;99.90;;;;;;5004825;28;20446;-72
2022/08/23 04:47:56;;;;;;;5.27;4.77;;;15.80;99.90;;;;;;5007138;28;20442;-73
2022/08/23 04:50:22;;;;;;;6.47;4.80;;;15.90;99.90;;;;;;5012538;28;20723;-71
2022/08/23 04:52:47;;;;;;;5.50;5.00;;;16.00;99.90;;;;;;5016244;28;20512;-73
2022/08/23 04:55:13;;;;;;;6.90;5.53;;;16.00;99.90;;;;;;4999908;28;20207;-72
2022/08/23 04:57:41;;;;;;;6.60;6.10;;;16.20;99.90;;;;;;5008362;28;20552;-73
2022/08/23 05:00:10;;;;;;;6.33;4.87;;;16.20;99.90;;;;;;5001237;28;20209;-73
2022/08/23 05:02:37;;;;;;;5.70;5.30;;;16.40;99.90;;;;;;5017174;28;20511;-72
2022/08/23 05:05:02;;;;;;;6.43;5.83;;;16.50;99.90;;;;;;5011135;28;20435;-72
2022/08/23 05:07:30;;;;;;;5.70;5.20;;;16.50;99.90;;;;;;5010410;28;20511;-73
2022/08/23 05:09:55;;;;;;;5.60;5.20;;;16.60;99.90;;;;;;5011320;28;20462;-73
2022/08/23 05:12:21;;;;;;;5.40;5.00;;;16.60;99.90;;;;;;5015593;28;20433;-73
2022/08/23 05:14:47;;;;;;;6.43;5.83;;;16.70;99.90;;;;;;5011342;28;20574;-73
2022/08/23 05:17:12;;;;;;;5.53;5.00;;;17.70;99.90;;;;;;5007017;28;20202;-72
2022/08/23 05:19:38;;;;;;;5.53;5.13;;;17.10;99.90;;;;;;5006231;28;20183;-73
2022/08/23 05:22:04;;;;;;;5.90;5.40;;;17.30;99.90;;;;;;5005143;28;20657;-73
2022/08/23 05:24:29;;;;;;;5.80;5.40;;;17.20;99.90;;;;;;5011656;28;20184;-72
2022/08/23 05:26:55;;;;;;;5.33;4.80;;;17.40;99.90;;;;;;5012130;28;20230;-72
2022/08/23 05:29:20;;;;;;;5.67;5.17;;;17.50;99.90;;;;;;5016803;28;20189;-72
2022/08/23 05:31:46;;;;;;;5.70;5.20;;;17.60;99.90;;;;;;5014341;28;20199;-73
2022/08/23 05:34:28;;;;;;;6.43;5.63;;;17.80;99.90;;;;;;5015145;28;20198;-74
2022/08/23 05:36:53;;;;;;;5.80;5.30;;;18.10;99.90;;;;;;5012331;28;20190;-74
2022/08/23 05:39:19;;;;;;;5.70;5.20;;;18.20;99.90;;;;;;5005463;28;20433;-74
2022/08/23 05:41:45;;;;;;;8.63;5.60;;;18.30;99.90;;;;;;5007194;28;20210;-74
2022/08/23 05:44:11;;;;;;;6.87;6.17;;;18.50;99.90;;;;;;5011055;28;20195;-73
2022/08/23 05:46:37;;;;;;;5.77;4.83;;;18.50;99.90;;;;;;5012692;28;20710;-74
2022/08/23 05:49:03;;;;;;;5.37;4.93;;;18.60;99.90;;;;;;5005863;28;20513;-73
2022/08/23 05:51:31;;;;;;;5.40;5.00;;;18.90;99.90;;;;;;5014441;28;20505;-74
2022/08/23 05:53:59;;;;;;;6.47;5.63;;;19.00;99.90;;;;;;5008585;28;20453;-74
2022/08/23 05:56:28;;;;;;;5.33;4.93;;;19.20;99.90;;;;;;5011482;28;20433;-74
2022/08/23 05:58:57;;;;;;;9.60;8.60;;;19.50;99.90;;;;;;5007406;28;20429;-74
2022/08/23 06:01:23;;;;;;;6.00;5.40;;;19.70;99.90;;;;;;5012532;28;20461;-74
2022/08/23 06:03:50;;;;;;;5.67;5.10;;;19.80;99.90;;;;;;5008690;28;20882;-74
2022/08/23 06:06:17;;;;;;;9.33;6.20;;;20.10;99.90;;;;;;5009376;28;20579;-75
2022/08/23 06:08:45;;;;;;;6.47;5.87;;;20.20;99.90;;;;;;5014577;28;20489;-74
2022/08/23 06:11:19;;;;;;;7.63;4.90;;;20.40;99.90;;;;;;5012374;28;20884;-74
2022/08/23 06:13:49;;;;;;;7.10;5.50;;;20.60;99.90;;;;;;5013124;28;20599;-74
2022/08/23 06:16:16;;;;;;;11.00;5.30;;;20.70;99.90;;;;;;5012268;28;20465;-71
2022/08/23 06:18:43;;;;;;;6.87;5.00;;;20.80;99.90;;;;;;5018698;28;20519;-72
2022/08/23 06:21:12;;;;;;;6.47;5.67;;;20.70;99.90;;;;;;5010609;28;20457;-72
2022/08/23 06:23:37;;;;;;;9.60;6.10;;;20.50;99.90;;;;;;5009127;28;20445;-74
2022/08/23 06:26:30;;;;;;;6.47;5.77;;;20.90;99.90;;;;;;5007078;28;20789;-75
2022/08/23 06:28:57;;;;;;;8.73;6.10;;;20.40;99.90;;;;;;5007726;28;20730;-74
2022/08/23 06:34:21;;;;;;;7.30;5.47;;;21.20;99.90;;;;;;5003201;28;20991;-74
2022/08/23 06:36:48;;;;;;;6.67;5.87;;;21.70;99.90;;;;;;5010509;28;20499;-74
2022/08/23 06:39:16;;;;;;;5.70;5.20;;;21.60;99.90;;;;;;5008334;28;20430;-73
2022/08/23 06:41:42;;;;;;;8.83;5.60;;;21.70;99.90;;;;;;5006969;28;20545;-72
2022/08/23 06:44:07;;;;;;;5.70;5.10;;;22.00;99.90;;;;;;5004909;28;20530;-73
2022/08/23 06:46:33;;;;;;;6.10;4.57;;;22.20;99.90;;;;;;5006939;28;20195;-74
2022/08/23 06:48:59;;;;;;;5.43;5.03;;;22.20;99.90;;;;;;5009301;28;20179;-73
2022/08/23 06:51:31;;;;;;;5.03;4.70;;;22.30;99.90;;;;;;5015187;28;20611;-74
2022/08/23 06:53:59;;;;;;;6.40;4.90;;;22.40;99.90;;;;;;5006753;28;20501;-73
2022/08/23 06:56:26;;;;;;;6.00;5.07;;;22.50;99.90;;;;;;5005868;28;20468;-72
2022/08/23 06:58:53;;;;;;;5.43;5.03;;;22.50;99.90;;;;;;5009775;28;20460;-73
2022/08/23 07:01:22;;;;;;;4.87;4.30;;;22.60;99.90;;;;;;5009651;28;20493;-71
2022/08/23 07:03:55;;;;;;;12.40;5.87;;;22.70;99.90;;;;;;5009095;28;20950;-71
2022/08/23 07:06:22;;;;;;;6.77;5.63;;;22.90;99.90;;;;;;5010683;28;20445;-72
2022/08/23 07:08:49;;;;;;;5.40;4.90;;;22.90;99.90;;;;;;5008518;28;20463;-72
2022/08/23 07:11:15;;;;;;;6.37;4.73;;;23.00;99.90;;;;;;5021057;28;20456;-72
2022/08/23 07:13:40;;;;;;;5.07;4.67;;;23.00;99.90;;;;;;5007071;28;20808;-72
2022/08/23 07:16:06;;;;;;;6.97;5.33;;;23.10;99.90;;;;;;5005752;28;20234;-71
2022/08/23 07:18:32;;;;;;;5.77;5.13;;;22.80;99.90;;;;;;5008771;28;20179;-72
2022/08/23 07:21:00;;;;;;;9.27;5.10;;;23.00;99.90;;;;;;5004420;28;20235;-71
2022/08/23 07:23:26;;;;;;;5.57;5.03;;;23.20;99.90;;;;;;5003605;28;20192;-72
2022/08/23 07:25:52;;;;;;;6.23;5.00;;;23.40;99.90;;;;;;5007863;28;20453;-71
2022/08/23 07:28:18;;;;;;;8.30;5.50;;;23.30;99.90;;;;;;5018108;28;20434;-71
2022/08/23 07:30:44;;;;;;;6.53;4.70;;;23.70;99.90;;;;;;5005600;28;20326;-72
2022/08/23 07:33:10;;;;;;;5.83;5.20;;;23.70;99.90;;;;;;5008507;28;20442;-72
2022/08/23 07:35:36;;;;;;;5.27;4.73;;;23.90;99.90;;;;;;5010000;28;20465;-72
2022/08/23 07:38:01;;;;;;;5.70;4.60;;;23.90;99.90;;;;;;5005518;28;20637;-71
2022/08/23 07:40:27;;;;;;;5.13;4.70;;;24.20;99.90;;;;;;5011704;28;20210;-72
2022/08/23 07:42:55;;;;;;;5.03;4.53;;;24.20;99.90;;;;;;5011976;28;20194;-73
2022/08/23 07:45:21;;;;;;;5.63;5.00;;;24.10;99.90;;;;;;5012426;28;20190;-72
2022/08/23 07:47:46;;;;;;;6.10;4.10;;;24.50;99.20;;;;;;5006424;28;20618;-71
2022/08/23 07:50:12;;;;;;;4.50;4.10;;;24.80;99.00;;;;;;5013127;28;20206;-72
2022/08/23 07:52:37;;;;;;;6.30;4.00;;;25.00;95.70;;;;;;5011459;28;20193;-69
2022/08/23 07:55:03;;;;;;;5.67;3.73;;;25.00;93.90;;;;;;5027633;28;20201;-69
2022/08/23 07:57:29;;;;;;;5.90;3.00;;;25.00;91.80;;;;;;5018262;28;20670;-70
2022/08/23 07:59:55;;;;;;;8.73;7.90;;;25.00;91.00;;;;;;5017543;28;20222;-71
2022/08/23 08:02:21;;;;;;;4.60;4.13;;;24.90;91.20;;;;;;5016552;28;20206;-72
2022/08/23 08:04:46;;;;;;;3.50;3.20;;;25.10;91.20;;;;;;5017204;28;20469;-72
2022/08/23 08:07:12;;;;;;;4.27;3.60;;;25.10;89.20;;;;;;5021464;28;20519;-72
2022/08/23 08:09:38;;;;;;;3.73;3.43;;;25.20;89.30;;;;;;5013456;28;20716;-72
2022/08/23 08:12:04;;;;;;;4.87;4.57;;;25.70;90.30;;;;;;5014473;28;20182;-70
2022/08/23 08:14:29;;;;;;;4.23;3.90;;;26.00;90.50;;;;;;5013471;28;20454;-69
2022/08/23 08:16:57;;;;;;;4.87;4.30;;;26.10;90.10;;;;;;5013932;28;20593;-70
2022/08/23 08:19:22;;;;;;;7.00;3.10;;;25.90;90.10;;;;;;5004079;28;20178;-70
2022/08/23 08:21:48;;;;;;;4.10;3.73;;;25.90;89.90;;;;;;5012934;28;20525;-71
2022/08/23 08:24:15;;;;;;;4.20;3.90;;;26.10;88.70;;;;;;5011850;28;20302;-69
2022/08/23 08:26:41;;;;;;;7.17;3.83;;;26.30;87.30;;;;;;5008123;28;20191;-70
2022/08/23 08:29:10;;;;;;;5.10;3.17;;;26.40;85.90;;;;;;5008494;28;20473;-72
2022/08/23 08:31:38;;;;;;;3.87;3.57;;;26.70;84.60;;;;;;5011720;28;20488;-72
2022/08/23 08:34:04;;;;;;;3.60;3.30;;;26.80;83.00;;;;;;5007268;28;20544;-70
2022/08/23 08:36:41;;;;;;;3.13;2.93;;;27.10;79.90;;;;;;5011467;28;20445;-70
2022/08/23 08:39:11;;;;;;;3.87;3.57;;;27.20;80.40;;;;;;5018101;28;20433;-70
2022/08/23 08:42:21;;;;;;;5.20;3.87;;;27.30;78.40;;;;;;5016621;28;21813;-73
2022/08/23 08:44:55;;;;;;;5.33;4.37;;;27.50;76.80;;;;;;5004726;28;20812;-73
2022/08/23 08:47:35;;;;;;;3.40;3.10;;;27.70;75.90;;;;;;5007046;28;20445;-73
2022/08/23 08:50:04;;;;;;;5.70;3.40;;;27.90;74.40;;;;;;5007638;28;20453;-72
2022/08/23 08:52:34;;;;;;;5.00;3.53;;;27.90;71.50;;;;;;4994541;28;20431;-73
2022/08/23 08:55:19;;;;;;;3.83;3.00;;;28.00;70.60;;;;;;5008845;28;20458;-73
2022/08/23 08:57:48;;;;;;;4.53;4.03;;;28.10;70.30;;;;;;5002304;28;20434;-71
2022/08/23 09:00:19;;;;;;;5.63;3.97;;;28.30;70.30;;;;;;5008794;28;20531;-71
2022/08/23 09:02:45;;;;;;;3.13;2.93;;;28.20;69.30;;;;;;5004615;28;20442;-70
2022/08/23 09:05:16;;;;;;;3.70;3.40;;;27.80;69.80;;;;;;5004694;28;20433;-70
2022/08/23 09:08:11;;;;;;;5.03;3.33;;;28.40;70.10;;;;;;5012674;28;20490;-71
2022/08/23 09:11:08;;;;;;;6.37;3.70;;;29.00;66.90;;;;;;5008256;28;20457;-72
2022/08/23 09:13:54;;;;;;;3.20;3.00;;;28.60;64.50;;;;;;5008818;28;20438;-70
2022/08/23 09:16:39;;;;;;;3.03;2.73;;;29.10;65.00;;;;;;5011012;28;20434;-71
2022/08/23 09:19:05;;;;;;;3.70;3.40;;;29.10;63.00;;;;;;5005681;28;20520;-71
2022/08/23 09:21:56;;;;;;;3.17;2.97;;;29.80;62.50;;;;;;5017650;28;20449;-71
2022/08/23 09:24:22;;;;;;;4.20;3.20;;;30.10;62.10;;;;;;5015708;28;21024;-71
2022/08/23 09:26:48;;;;;;;3.40;3.07;;;30.40;61.80;;;;;;5017713;28;20473;-72
2022/08/23 09:29:30;;;;;;;4.47;3.37;;;31.10;59.40;;;;;;5018011;28;20171;-72
2022/08/23 09:32:01;;;;;;;5.00;3.40;;;31.00;59.40;;;;;;5012164;28;20462;-72
2022/08/23 09:34:36;;;;;;;4.83;4.10;;;32.50;58.80;;;;;;5007802;28;20472;-72
2022/08/23 09:37:22;;;;;;;4.50;3.60;;;32.80;56.30;;;;;;5010224;28;20449;-72
2022/08/23 09:40:14;;;;;;;5.03;3.73;;;33.20;54.50;;;;;;5004889;28;20437;-72
2022/08/23 09:42:40;;;;;;;4.30;3.13;;;32.10;54.80;;;;;;5009569;28;20450;-72
2022/08/23 09:45:29;;;;;;;4.00;3.37;;;31.20;55.80;;;;;;5005646;28;21280;-72
2022/08/23 09:47:55;;;;;;;3.70;3.30;;;32.20;55.10;;;;;;5020530;28;20456;-72
2022/08/23 09:50:30;;;;;;;5.40;3.23;;;32.50;53.50;;;;;;5004220;28;20458;-72
2022/08/23 09:53:06;;;;;;;3.90;3.10;;;33.20;53.60;;;;;;5019764;28;20183;-72
2022/08/23 09:55:34;;;;;;;3.17;2.97;;;33.80;51.60;;;;;;5005365;28;20910;-72
2022/08/23 09:58:02;;;;;;;3.50;3.20;;;33.50;51.00;;;;;;5006811;28;20446;-73
2022/08/23 10:00:32;;;;;;;4.67;3.27;;;34.10;51.00;;;;;;5011436;28;20520;-73
2022/08/23 10:03:21;;;;;;;3.30;2.97;;;35.10;49.20;;;;;;5010525;28;20441;-74
2022/08/23 10:05:51;;;;;;;2.83;2.63;;;33.70;49.30;;;;;;5011287;28;20440;-72
2022/08/23 10:08:51;;;;;;;3.80;3.43;;;33.80;50.00;;;;;;5011641;28;20440;-67
2022/08/23 10:11:24;;;;;;;5.77;3.17;;;35.50;48.80;;;;;;5011983;28;20484;-72
2022/08/23 10:13:51;;;;;;;4.13;2.70;;;36.50;47.20;;;;;;5004799;28;20445;-73
2022/08/23 10:16:25;;;;;;;4.03;3.50;;;37.30;45.70;;;;;;5013287;28;20438;-73
2022/08/23 10:19:03;;;;;;;7.40;5.50;;;36.60;44.50;;;;;;5019252;28;20436;-72
2022/08/23 10:21:47;;;;;;;3.70;3.40;;;37.90;43.50;;;;;;5007136;28;20525;-73
2022/08/23 10:24:15;;;;;;;7.10;2.80;;;39.20;41.90;;;;;;5008812;28;20445;-73
2022/08/23 10:27:02;;;;;;;5.30;2.60;;;39.70;40.90;;;;;;5014202;28;20445;-76
2022/08/23 10:29:39;;;;;;;4.27;2.93;;;39.60;40.40;;;;;;5016887;28;20445;-76
2022/08/23 10:32:44;;;;;;;4.00;2.80;;;40.70;39.00;;;;;;5009974;28;20437;-71
2022/08/23 10:35:42;;;;;;;4.10;2.70;;;40.90;38.50;;;;;;4982911;28;20472;-75
2022/08/23 10:38:55;;;;;;;5.33;3.30;;;40.60;38.40;;;;;;5006868;28;20928;-72
2022/08/23 10:41:26;;;;;;;5.90;2.80;;;40.70;38.20;;;;;;4998308;28;20489;-75
2022/08/23 10:43:57;;;;;;;3.37;3.00;;;42.60;36.80;;;;;;5017631;28;20432;-75
2022/08/23 10:46:25;;;;;;;3.73;2.63;;;42.20;36.30;;;;;;5014350;28;20453;-73
2022/08/23 10:48:58;;;;;;;3.20;3.00;;;42.80;36.20;;;;;;5001351;28;20954;-72
2022/08/23 10:51:32;;;;;;;3.30;2.77;;;43.10;34.80;;;;;;5014587;28;20461;-72
2022/08/23 10:54:08;;;;;;;3.03;2.83;;;43.20;34.50;;;;;;5012412;28;20461;-69
2022/08/23 10:56:35;;;;;;;18.50;4.23;;;43.30;34.30;;;;;;5010080;28;20445;-73
2022/08/23 10:59:14;;;;;;;2.80;2.47;;;43.40;33.70;;;;;;5005911;28;20955;-76
2022/08/23 11:02:03;;;;;;;3.60;2.83;;;43.20;32.70;;;;;;5012433;28;20468;-73
2022/08/23 11:04:33;;;;;;;2.67;2.47;;;43.60;32.40;;;;;;5012748;28;20458;-72
2022/08/23 11:07:11;;;;;;;3.30;3.00;;;43.50;32.20;;;;;;5018647;28;20469;-73
2022/08/23 11:09:51;;;;;;;5.70;5.30;;;43.20;31.50;;;;;;5008011;28;20449;-71
2022/08/23 11:12:24;;;;;;;3.27;3.07;;;43.40;32.40;;;;;;5018555;28;20495;-71
2022/08/23 11:14:56;;;;;;;4.90;2.60;;;43.80;31.60;;;;;;5009392;28;20512;-71
2022/08/23 11:17:25;;;;;;;3.67;3.23;;;43.80;31.60;;;;;;5008218;28;20435;-72
2022/08/23 11:19:55;;;;;;;2.80;2.60;;;44.40;31.40;;;;;;5007745;28;20444;-71
2022/08/23 11:22:25;;;;;;;3.33;3.03;;;43.90;30.90;;;;;;5003637;28;20430;-76
2022/08/23 11:25:24;;;;;;;2.90;2.70;;;42.90;31.00;;;;;;5008437;28;20796;-72
2022/08/23 11:28:10;;;;;;;5.30;3.30;;;42.60;31.20;;;;;;5000905;28;20810;-73
2022/08/23 11:30:42;;;;;;;2.73;2.53;;;43.20;31.00;;;;;;5004186;28;20505;-72
2022/08/23 11:33:14;;;;;;;2.80;2.60;;;43.70;30.60;;;;;;4998349;28;20435;-72
2022/08/23 11:35:48;;;;;;;3.13;3.03;;;42.00;30.90;;;;;;5009206;28;20866;-72
2022/08/23 11:38:15;;;;;;;3.20;3.00;;;42.40;31.60;;;;;;4997097;28;20941;-72
2022/08/23 11:40:49;;;;;;;2.83;2.63;;;42.10;31.20;;;;;;5009664;28;20507;-72
2022/08/23 11:43:27;;;;;;;3.83;3.13;;;41.40;31.20;;;;;;5000259;28;20430;-73
2022/08/23 11:45:52;;;;;;;2.83;2.43;;;39.00;32.60;;;;;;5006640;28;20437;-72
2022/08/23 11:48:37;;;;;;;5.83;3.03;;;38.70;33.30;;;;;;5006722;28;20426;-72
2022/08/23 11:51:19;;;;;;;6.90;6.30;;;39.80;33.40;;;;;;5010311;28;20202;-72
2022/08/23 11:53:53;;;;;;;3.07;2.87;;;40.80;32.60;;;;;;5012234;28;20446;-74
2022/08/23 11:56:57;;;;;;;2.87;2.67;;;41.90;31.80;;;;;;5008932;28;20496;-73
2022/08/23 12:00:05;;;;;;;2.77;2.57;;;43.40;31.30;;;;;;5010432;28;20438;-76
2022/08/23 12:02:52;;;;;;;3.10;2.80;;;44.50;31.10;;;;;;5001395;28;20514;-72
2022/08/23 12:05:31;;;;;;;3.20;3.00;;;44.50;30.60;;;;;;5008372;28;20484;-72
2022/08/23 12:08:03;;;;;;;3.77;3.33;;;43.90;31.00;;;;;;5011402;28;20430;-72
2022/08/23 12:10:40;;;;;;;3.43;3.20;;;44.80;30.70;;;;;;5002072;28;20461;-71
2022/08/23 12:13:18;;;;;;;3.27;3.00;;;42.90;30.90;;;;;;4999996;28;20957;-73
2022/08/23 12:16:12;;;;;;;4.23;3.00;;;43.30;31.20;;;;;;5011261;28;20468;-71
2022/08/23 12:18:42;;;;;;;3.20;2.90;;;43.50;31.00;;;;;;5003451;28;20460;-70
2022/08/23 12:21:15;;;;;;;3.37;3.17;;;41.60;31.40;;;;;;5011491;28;20457;-70
2022/08/23 12:23:50;;;;;;;3.37;3.10;;;41.00;32.20;;;;;;5014308;28;20437;-72
2022/08/23 12:26:48;;;;;;;2.90;2.53;;;42.50;31.60;;;;;;5008524;28;20455;-71
2022/08/23 12:29:17;;;;;;;2.77;2.67;;;43.90;30.90;;;;;;5010613;28;20433;-72
2022/08/23 12:32:11;;;;;;;2.93;2.77;;;45.20;30.40;;;;;;5009599;28;20463;-69
2022/08/23 12:34:57;;;;;;;3.90;3.00;;;46.20;29.80;;;;;;5010470;28;20471;-70
2022/08/23 12:37:39;;;;;;;2.67;2.50;;;46.80;29.50;;;;;;5011328;28;20449;-71
2022/08/23 12:40:13;;;;;;;3.30;2.83;;;46.20;29.40;;;;;;5016562;28;20446;-70
2022/08/23 12:42:40;;;;;;;2.90;2.70;;;44.90;30.00;;;;;;5009887;28;20437;-69
2022/08/23 12:45:19;;;;;;;3.40;3.10;;;45.40;30.10;;;;;;5006117;28;20489;-72
2022/08/23 12:48:00;;;;;;;3.80;3.10;;;46.40;29.90;;;;;;5007209;28;20441;-69
2022/08/23 12:50:40;;;;;;;3.23;2.93;;;46.70;29.60;;;;;;5016960;28;21029;-69
2022/08/23 12:53:13;;;;;;;3.50;3.20;;;47.40;29.30;;;;;;5009005;28;20515;-69
2022/08/23 12:55:44;;;;;;;3.17;2.77;;;46.80;29.40;;;;;;5020742;28;20966;-69
2022/08/23 12:58:10;;;;;;;3.40;3.23;;;45.80;29.70;;;;;;5018716;28;20519;-70
2022/08/23 13:00:42;;;;;;;3.10;2.80;;;46.10;29.70;;;;;;5014453;23;21468;-68
2022/08/23 13:03:27;;;;;;;3.60;3.30;;;43.80;29.80;;;;;;4964102;28;20522;-68
2022/08/23 13:06:01;;;;;;;3.37;3.07;;;44.80;29.80;;;;;;4984656;28;20463;-68
2022/08/23 13:08:38;;;;;;;3.67;3.37;;;46.20;29.40;;;;;;4980315;28;20929;-68
2022/08/23 13:11:06;;;;;;;5.93;3.67;;;44.60;29.00;;;;;;4980801;28;20989;-68
2022/08/23 13:13:32;;;;;;;3.23;2.93;;;42.10;30.50;;;;;;4983048;28;20435;-68
2022/08/23 13:16:01;;;;;;;3.23;3.03;;;41.70;31.00;;;;;;4969883;28;20510;-68
2022/08/23 13:18:41;;;;;;;3.03;2.73;;;41.50;31.40;;;;;;4972723;28;20963;-68